Time;durP1;ratioP1;P1;durP2;ratioP2;P2;SDS_P1;SDS_P2;PMS_P1;PMS_P2;Temp;Humidity;BMP_temperature;BMP_pressure;BME280_temperature;BME280_humidity;BME280_pressure;Samples;Min_cycle;Max_cycle;Signal;HPM_P1;HPM_P2
2022/01/25 00:28:48;;;;;;;35.53;18.57;;;;;;;1.19;100.00;98080.53;10375855;28;20240;-65
2022/01/25 00:33:51;;;;;;;30.77;19.07;;;;;;;1.11;100.00;98078.25;10374931;28;20760;-64
2022/01/25 00:38:52;;;;;;;27.93;15.93;;;;;;;1.08;100.00;98073.22;10374134;28;20225;-64
2022/01/25 00:43:53;;;;;;;25.87;15.90;;;;;;;1.08;100.00;98075.81;10374118;28;20250;-67
2022/01/25 00:48:59;;;;;;;25.90;15.80;;;;;;;0.99;100.00;98069.28;10374080;28;20955;-66
2022/01/25 00:54:02;;;;;;;33.47;18.27;;;;;;;0.96;100.00;98063.41;10373484;28;20193;-65
2022/01/25 00:59:08;;;;;;;30.07;15.60;;;;;;;1.09;100.00;98066.31;10373366;28;20283;-66
2022/01/25 01:04:09;;;;;;;28.27;15.77;;;;;;;1.14;100.00;98062.66;10373116;28;20674;-66
2022/01/25 01:09:11;;;;;;;33.93;19.00;;;;;;;1.05;100.00;98074.19;10372929;28;20726;-65
2022/01/25 01:35:40;;;;;;;29.90;16.47;;;;;;;1.09;100.00;98056.84;10372372;28;20201;-66
2022/01/25 01:50:46;;;;;;;29.97;16.47;;;;;;;0.99;100.00;98033.16;10371409;28;20198;-64
2022/01/25 01:55:46;;;;;;;25.70;15.47;;;;;;;1.22;100.00;98039.94;10371789;28;20181;-65
2022/01/25 02:00:47;;;;;;;25.83;14.03;;;;;;;1.10;100.00;98040.44;10371159;28;20561;-65
2022/01/25 02:05:48;;;;;;;21.80;12.37;;;;;;;0.94;100.00;98022.19;10370367;28;20189;-65
2022/01/25 02:10:48;;;;;;;37.13;21.47;;;;;;;1.13;100.00;98024.81;10370987;28;20254;-65
2022/01/25 02:15:50;;;;;;;25.77;15.33;;;;;;;1.13;100.00;98024.00;10370595;28;20200;-63
2022/01/25 02:26:14;;;;;;;20.37;12.10;;;;;;;0.91;100.00;98006.84;10370623;28;20278;-64
2022/01/25 02:31:16;;;;;;;20.03;11.93;;;;;;;0.93;100.00;98009.38;10370459;28;20347;-66
2022/01/25 02:36:26;;;;;;;22.37;11.57;;;;;;;0.91;100.00;98006.84;10370417;28;20577;-66
2022/01/25 02:41:26;;;;;;;19.37;9.93;;;;;;;0.83;100.00;98001.19;10370099;28;20225;-67
2022/01/25 02:51:44;;;;;;;20.13;10.80;;;;;;;0.92;100.00;97985.31;10369928;28;20209;-63
2022/01/25 02:56:46;;;;;;;18.00;10.87;;;;;;;0.91;100.00;97985.38;10370034;28;20239;-66
2022/01/25 03:01:47;;;;;;;18.53;10.10;;;;;;;0.90;100.00;97976.78;10369943;28;20762;-65
2022/01/25 03:06:48;;;;;;;15.87;9.37;;;;;;;0.88;100.00;97974.28;10369640;28;20233;-65
2022/01/25 03:11:51;;;;;;;16.03;9.23;;;;;;;0.86;100.00;97983.00;10369730;28;20244;-64
2022/01/25 03:21:53;;;;;;;11.73;7.00;;;;;;;1.06;100.00;97962.34;10376274;28;20224;-64
2022/01/25 03:26:54;;;;;;;10.93;7.43;;;;;;;0.85;100.00;97964.09;10377223;28;20202;-65
2022/01/25 03:31:54;;;;;;;9.87;6.67;;;;;;;0.90;100.00;97961.31;10376715;28;20264;-66
2022/01/25 03:36:54;;;;;;;10.93;7.10;;;;;;;0.99;100.00;97960.91;10376529;28;20224;-66
2022/01/25 03:41:55;;;;;;;9.47;6.00;;;;;;;0.97;100.00;97955.00;10376623;28;20228;-65
2022/01/25 03:47:03;;;;;;;11.80;5.83;;;;;;;0.77;100.00;97961.00;10376337;28;20204;-65
2022/01/25 03:52:06;;;;;;;9.17;5.87;;;;;;;0.86;100.00;97960.59;10376234;28;20207;-65
2022/01/25 03:57:06;;;;;;;7.20;4.73;;;;;;;1.04;100.00;97965.88;10375908;28;20593;-65
2022/01/25 04:02:07;;;;;;;7.90;5.07;;;;;;;0.75;100.00;97952.50;10374987;28;20213;-67
2022/01/25 04:07:11;;;;;;;6.20;4.47;;;;;;;0.68;100.00;97953.66;10375636;28;20207;-66
2022/01/25 04:12:13;;;;;;;7.57;5.57;;;;;;;0.63;100.00;97942.66;10375259;28;20213;-66
2022/01/25 04:17:18;;;;;;;8.63;5.27;;;;;;;0.80;100.00;97944.56;10375234;28;20589;-66
2022/01/25 04:27:25;;;;;;;9.23;5.63;;;;;;;0.67;100.00;97939.06;10374729;28;20288;-65
2022/01/25 04:32:44;;;;;;;8.77;5.53;;;;;;;0.57;100.00;97935.19;10373974;28;20280;-65
2022/01/25 04:53:50;;;;;;;9.63;6.20;;;;;;;0.71;100.00;97944.03;10373607;28;20659;-65
2022/01/25 04:59:08;;;;;;;11.77;7.20;;;;;;;0.68;100.00;97943.34;10373480;28;20229;-66
2022/01/25 05:04:13;;;;;;;11.33;6.83;;;;;;;0.78;100.00;97943.78;10373099;28;20200;-65
2022/01/25 05:09:15;;;;;;;10.07;6.33;;;;;;;0.78;100.00;97941.19;10373337;28;20212;-66
2022/01/25 05:14:25;;;;;;;12.50;6.67;;;;;;;0.85;100.00;97947.78;10373059;28;20688;-64
2022/01/25 05:24:26;;;;;;;10.50;6.70;;;;;;;0.66;100.00;97952.88;10372746;28;20279;-65
2022/01/25 05:29:26;;;;;;;10.60;6.47;;;;;;;0.39;100.00;97939.38;10372248;28;20284;-65
2022/01/25 05:34:27;;;;;;;9.33;6.07;;;;;;;0.27;100.00;97951.84;10432611;22;20726;-63
2022/01/25 05:39:31;;;;;;;7.73;5.07;;;;;;;0.38;100.00;97958.31;10412733;28;20694;-65
2022/01/25 05:44:53;;;;;;;8.33;5.23;;;;;;;0.33;100.00;97961.09;10411767;28;20217;-65
2022/01/25 05:49:54;;;;;;;10.90;6.27;;;;;;;0.28;100.00;97963.03;10412267;28;20195;-65
2022/01/25 05:54:54;;;;;;;9.10;5.50;;;;;;;0.23;100.00;97955.47;10412481;28;20532;-65
2022/01/25 05:59:55;;;;;;;10.30;6.80;;;;;;;0.19;100.00;97953.09;10411925;28;20224;-65
2022/01/25 06:04:55;;;;;;;11.90;6.57;;;;;;;0.33;100.00;97956.75;10411559;28;20289;-63
2022/01/25 06:09:56;;;;;;;14.57;8.77;;;;;;;0.35;100.00;97948.97;10411821;28;20185;-63
2022/01/25 06:14:56;;;;;;;15.57;8.87;;;;;;;0.21;100.00;97936.63;10411683;28;20184;-64
2022/01/25 06:19:56;;;;;;;13.17;7.47;;;;;;;0.29;100.00;97937.19;10411755;28;20217;-65
2022/01/25 06:24:57;;;;;;;13.37;7.73;;;;;;;0.15;100.00;97950.63;10411266;28;20199;-65
2022/01/25 06:29:57;;;;;;;13.50;7.67;;;;;;;0.15;100.00;97958.34;10410290;28;20189;-65
2022/01/25 06:34:57;;;;;;;12.17;6.40;;;;;;;0.24;100.00;97956.31;10406855;28;20282;-64
2022/01/25 06:39:58;;;;;;;13.00;7.70;;;;;;;0.20;100.00;97959.91;10410680;28;20224;-65
2022/01/25 06:45:04;;;;;;;20.23;9.73;;;;;;;0.14;100.00;97972.13;10412019;28;20195;-67
2022/01/25 06:50:05;;;;;;;19.20;9.30;;;;;;;0.29;100.00;97972.41;10410358;28;20570;-63
2022/01/25 06:55:07;;;;;;;16.53;9.43;;;;;;;0.34;100.00;97976.50;10417052;28;20191;-63
2022/01/25 07:00:14;;;;;;;19.57;9.93;;;;;;;0.34;100.00;97988.56;10419199;28;20242;-62
2022/01/25 07:05:15;;;;;;;20.37;10.00;;;;;;;0.25;100.00;97984.59;10418414;28;20191;-62
2022/01/25 07:10:15;;;;;;;18.00;8.67;;;;;;;0.11;100.00;97987.72;10418969;28;20219;-65
2022/01/25 07:15:16;;;;;;;16.40;8.90;;;;;;;0.20;100.00;97989.09;10418470;28;20929;-63
2022/01/25 07:20:17;;;;;;;14.53;8.03;;;;;;;0.46;100.00;97989.78;10418086;28;20570;-63
2022/01/25 07:25:17;;;;;;;17.90;8.83;;;;;;;0.35;100.00;97985.91;10418208;28;20549;-61
2022/01/25 07:30:17;;;;;;;19.73;9.17;;;;;;;0.39;100.00;97980.63;10416416;28;20568;-63
2022/01/25 07:35:18;;;;;;;19.30;9.70;;;;;;;0.39;100.00;97983.22;10415659;28;20572;-63
2022/01/25 07:40:18;;;;;;;18.20;9.50;;;;;;;0.33;100.00;97968.81;10416723;28;20330;-64
2022/01/25 07:45:19;;;;;;;16.83;9.13;;;;;;;0.44;100.00;97968.38;10417577;28;20198;-65
2022/01/25 07:50:19;;;;;;;20.40;9.67;;;;;;;0.57;100.00;97973.88;10417179;28;20216;-65
2022/01/25 07:55:20;;;;;;;18.57;8.80;;;;;;;0.65;100.00;97982.97;10416775;28;20196;-64
2022/01/25 08:00:21;;;;;;;18.67;10.40;;;;;;;0.73;100.00;97985.22;10411110;28;20282;-65
2022/01/25 08:05:24;;;;;;;18.90;10.27;;;;;;;0.64;100.00;97981.28;10413130;28;20732;-65
2022/01/25 08:10:24;;;;;;;16.27;9.63;;;;;;;0.55;100.00;97976.50;10415047;28;20247;-65
2022/01/25 08:15:24;;;;;;;21.77;11.60;;;;;;;0.56;100.00;97977.38;10412665;28;20698;-65
2022/01/25 08:20:25;;;;;;;22.67;11.23;;;;;;;0.71;100.00;97969.00;10412169;28;20311;-64
2022/01/25 08:25:25;;;;;;;22.03;12.07;;;;;;;0.59;100.00;97966.94;10415238;28;20234;-64
2022/01/25 08:30:25;;;;;;;23.57;12.43;;;;;;;0.69;100.00;97961.31;10414501;28;20263;-64
2022/01/25 08:35:26;;;;;;;22.37;12.20;;;;;;;0.85;100.00;97958.91;10414800;28;20196;-63
2022/01/25 08:40:26;;;;;;;24.00;12.50;;;;;;;0.87;100.00;97951.97;10414398;28;20229;-62
2022/01/25 08:45:27;;;;;;;21.30;11.87;;;;;;;0.74;100.00;97957.72;10413244;28;20193;-63
2022/01/25 08:50:27;;;;;;;20.70;12.33;;;;;;;0.73;100.00;97951.69;10413357;28;20213;-64
2022/01/25 08:55:28;;;;;;;20.83;12.20;;;;;;;0.87;100.00;97951.97;10414018;28;20253;-64
2022/01/25 09:00:28;;;;;;;20.17;11.57;;;;;;;0.93;100.00;97945.69;10411800;28;20237;-63
2022/01/25 09:05:29;;;;;;;25.60;12.10;;;;;;;0.92;100.00;97945.75;10411195;28;20193;-64
2022/01/25 09:10:29;;;;;;;19.63;11.57;;;;;;;0.76;100.00;97948.16;10412404;28;20212;-64
2022/01/25 09:15:30;;;;;;;20.93;11.50;;;;;;;1.07;100.00;97947.69;10411735;28;20193;-63
2022/01/25 09:20:30;;;;;;;20.10;12.60;;;;;;;1.27;100.00;97946.78;10410193;28;20311;-64
2022/01/25 09:25:31;;;;;;;24.93;13.13;;;;;;;1.08;100.00;97949.38;10408970;28;20235;-63
2022/01/25 09:30:32;;;;;;;22.97;13.23;;;;;;;1.28;100.00;97950.25;10402373;28;20224;-63
2022/01/25 09:35:32;;;;;;;21.80;11.33;;;;;;;1.06;100.00;97956.34;10408416;28;20187;-63
2022/01/25 09:40:33;;;;;;;28.10;13.10;;;;;;;1.24;100.00;97952.94;10407607;28;20216;-64
2022/01/25 09:45:35;;;;;;;19.23;12.23;;;;;;;1.11;100.00;97971.63;10407415;28;20203;-63
2022/01/25 09:50:37;;;;;;;20.23;12.57;;;;;;;1.23;100.00;97974.50;10403591;28;20238;-63
2022/01/25 09:55:42;;;;;;;16.20;10.60;;;;;;;1.31;100.00;97963.00;10410552;28;20196;-64
2022/01/25 10:00:46;;;;;;;24.77;12.67;;;;;;;1.23;100.00;97973.66;10410323;28;20304;-63
2022/01/25 10:05:48;;;;;;;14.60;10.37;;;;;;;1.25;100.00;97971.84;10410273;28;20204;-64
2022/01/25 10:10:52;;;;;;;22.13;11.50;;;;;;;1.24;100.00;97973.59;10410704;28;20714;-61
2022/01/25 10:16:05;;;;;;;17.53;11.40;;;;;;;1.29;100.00;97975.97;10409825;28;20254;-64
2022/01/25 10:21:14;;;;;;;17.10;9.83;;;;;;;1.27;100.00;97971.78;10408453;28;20250;-63
2022/01/25 10:26:14;;;;;;;20.27;11.83;;;;;;;1.23;100.00;97971.91;10409527;28;20638;-64
2022/01/25 10:31:14;;;;;;;16.67;10.50;;;;;;;1.26;100.00;97976.13;10409543;28;20237;-63
2022/01/25 10:36:19;;;;;;;16.30;10.50;;;;;;;1.37;100.00;97975.66;10408969;28;20195;-63
2022/01/25 10:41:22;;;;;;;14.53;8.77;;;;;;;1.46;100.00;97964.91;10409371;28;20232;-63
2022/01/25 10:46:30;;;;;;;12.90;8.00;;;;;;;1.27;100.00;97953.72;10409023;28;20204;-63
2022/01/25 10:51:37;;;;;;;13.17;8.43;;;;;;;1.39;100.00;97953.16;10405178;28;20216;-64
2022/01/25 10:56:46;;;;;;;15.80;10.07;;;;;;;1.19;100.00;97957.47;10409174;28;20204;-62
2022/01/25 11:01:58;;;;;;;13.00;9.63;;;;;;;1.41;100.00;97946.22;10409643;28;20686;-64
2022/01/25 11:07:01;;;;;;;14.93;9.57;;;;;;;1.06;100.00;97951.19;10409087;28;20185;-63
2022/01/25 11:12:04;;;;;;;15.03;9.13;;;;;;;1.23;100.00;97947.88;10406942;28;20213;-62
2022/01/25 11:17:04;;;;;;;13.77;8.93;;;;;;;1.08;100.00;97943.38;10408432;28;20567;-63
2022/01/25 11:22:05;;;;;;;14.33;8.67;;;;;;;1.15;100.00;97939.59;10404358;28;20304;-63
2022/01/25 11:27:07;;;;;;;14.67;9.23;;;;;;;1.46;100.00;97928.75;10405807;28;20200;-62
2022/01/25 11:32:20;;;;;;;14.17;8.47;;;;;;;1.48;100.00;97921.75;10408314;28;20236;-64
2022/01/25 11:37:33;;;;;;;13.27;8.53;;;;;;;1.74;100.00;97927.47;10407091;28;20250;-61
2022/01/25 11:42:37;;;;;;;18.57;11.17;;;;;;;1.71;100.00;97927.63;10414307;28;20227;-63
2022/01/25 11:47:38;;;;;;;15.63;8.40;;;;;;;1.64;100.00;97924.50;10413846;28;20334;-62
2022/01/25 11:52:52;;;;;;;11.53;7.90;;;;;;;1.66;100.00;97922.69;10412743;28;20200;-62
2022/01/25 11:57:57;;;;;;;14.70;8.03;;;;;;;1.80;100.00;97913.44;10409068;28;20212;-61
2022/01/25 12:03:01;;;;;;;13.43;7.57;;;;;;;1.74;100.00;97917.16;10412150;28;20247;-63
2022/01/25 12:08:10;;;;;;;10.97;7.07;;;;;;;1.44;100.00;97912.50;10413463;28;20234;-62
2022/01/25 12:13:28;;;;;;;13.63;7.73;;;;;;;1.42;100.00;97902.25;10414302;28;20244;-62
2022/01/25 12:18:51;;;;;;;16.57;8.40;;;;;;;1.14;100.00;97910.38;10414225;28;20702;-62
2022/01/25 12:24:18;;;;;;;11.83;7.57;;;;;;;1.21;100.00;97891.16;10412532;28;20223;-63
2022/01/25 12:29:36;;;;;;;10.93;6.73;;;;;;;1.20;100.00;97886.88;10408894;28;20192;-63
2022/01/25 12:34:56;;;;;;;12.43;6.67;;;;;;;1.31;100.00;97893.31;10413590;28;20240;-63
2022/01/25 12:40:25;;;;;;;9.47;6.30;;;;;;;1.22;100.00;97879.91;10412958;28;20240;-63
2022/01/25 12:45:28;;;;;;;11.23;7.20;;;;;;;1.25;100.00;97884.09;10414082;28;20667;-63
2022/01/25 12:50:29;;;;;;;14.00;8.07;;;;;;;1.09;100.00;97877.94;10413305;28;20243;-62
2022/01/25 12:55:33;;;;;;;21.43;9.60;;;;;;;0.94;100.00;97877.72;10413769;28;20283;-63
2022/01/25 13:00:38;;;;;;;20.13;10.83;;;;;;;0.80;100.00;97872.34;10412092;28;20225;-64
2022/01/25 13:06:03;;;;;;;20.63;9.80;;;;;;;0.76;100.00;97869.03;10411644;28;20659;-63
2022/01/25 13:11:20;;;;;;;17.10;9.40;;;;;;;0.88;100.00;97854.78;10411846;28;20243;-64
2022/01/25 13:16:38;;;;;;;22.30;9.20;;;;;;;0.77;100.00;97851.84;10412192;28;20694;-64
2022/01/25 13:21:41;;;;;;;17.53;9.43;;;;;;;0.82;100.00;97852.47;10411916;28;20759;-64
2022/01/25 13:26:54;;;;;;;18.13;9.37;;;;;;;0.67;100.00;97848.81;10412214;28;20185;-62
2022/01/25 13:32:12;;;;;;;18.10;8.83;;;;;;;0.75;100.00;97836.44;10410930;28;20233;-62
2022/01/25 13:37:20;;;;;;;18.20;9.10;;;;;;;0.68;100.00;97847.91;10412229;28;20184;-63
2022/01/25 13:42:36;;;;;;;16.90;8.70;;;;;;;0.67;100.00;97839.34;10412019;28;20212;-63
2022/01/25 13:47:37;;;;;;;24.87;10.37;;;;;;;0.68;100.00;97833.28;10412004;28;20200;-63
2022/01/25 13:52:38;;;;;;;20.67;10.10;;;;;;;0.78;100.00;97825.13;10410332;28;20211;-63
2022/01/25 13:57:38;;;;;;;18.93;10.30;;;;;;;0.74;100.00;97827.00;10411456;28;20574;-63
2022/01/25 14:02:39;;;;;;;20.17;9.57;;;;;;;0.77;100.00;97823.47;10410347;28;20631;-63
2022/01/25 14:07:40;;;;;;;19.97;10.10;;;;;;;0.89;100.00;97815.19;10408737;28;20675;-62
2022/01/25 14:23:24;;;;;;;22.30;11.13;;;;;;;0.97;100.00;97831.16;10410717;28;20623;-63
2022/01/25 14:28:25;;;;;;;22.63;12.13;;;;;;;0.87;100.00;97835.03;10410479;28;20719;-63
2022/01/25 14:33:28;;;;;;;23.57;11.37;;;;;;;0.77;100.00;97837.19;10410009;28;20730;-62
2022/01/25 14:38:32;;;;;;;27.37;13.80;;;;;;;0.76;100.00;97845.00;10408277;28;20228;-62
2022/01/25 14:43:35;;;;;;;27.87;12.73;;;;;;;0.80;100.00;97844.78;10407495;28;20641;-63
2022/01/25 14:48:37;;;;;;;27.07;13.20;;;;;;;0.80;100.00;97843.97;10410177;28;20279;-62
2022/01/25 14:53:40;;;;;;;27.37;13.13;;;;;;;0.79;100.00;97844.88;10409982;28;20286;-64
2022/01/25 15:03:57;;;;;;;34.70;15.83;;;;;;;0.54;100.00;97851.09;10409576;28;20706;-62
2022/01/25 15:08:58;;;;;;;27.60;13.00;;;;;;;0.54;100.00;97856.25;10408919;28;20220;-63
2022/01/25 15:14:07;;;;;;;31.73;14.17;;;;;;;0.54;100.00;97853.69;10411853;28;20211;-63
2022/01/25 15:19:07;;;;;;;33.07;16.87;;;;;;;0.38;100.00;97843.16;10416939;28;20216;-63
2022/01/25 15:24:08;;;;;;;47.87;21.97;;;;;;;0.42;100.00;97847.28;10414128;28;20208;-63
2022/01/25 15:29:09;;;;;;;33.33;15.00;;;;;;;0.42;100.00;97847.28;10415124;28;20195;-62
2022/01/25 15:34:09;;;;;;;34.67;14.13;;;;;;;0.41;100.00;97849.94;10416383;28;20232;-63
2022/01/25 15:39:10;;;;;;;31.53;14.63;;;;;;;0.40;100.00;97843.94;10415624;28;20223;-63
2022/01/25 15:44:11;;;;;;;31.73;13.67;;;;;;;0.33;100.00;97845.94;10414354;28;20710;-62
2022/01/25 15:49:11;;;;;;;35.67;15.37;;;;;;;0.25;100.00;97845.44;10413135;28;20191;-63
2022/01/25 15:54:12;;;;;;;34.07;15.97;;;;;;;0.32;100.00;97848.56;10411367;28;20223;-64
2022/01/25 15:59:12;;;;;;;34.13;16.00;;;;;;;0.23;100.00;97852.41;10413869;28;20227;-64
2022/01/25 16:04:12;;;;;;;31.70;15.13;;;;;;;0.29;100.00;97851.28;10412951;28;20212;-64
2022/01/25 16:09:13;;;;;;;38.67;19.10;;;;;;;0.36;100.00;97860.44;10411663;28;20654;-62
2022/01/25 16:14:15;;;;;;;31.53;15.73;;;;;;;-0.06;100.00;97872.47;10411989;28;20634;-63
2022/01/25 16:19:16;;;;;;;40.77;18.10;;;;;;;-0.06;100.00;97874.19;10413594;28;20254;-63
2022/01/25 16:24:18;;;;;;;44.03;21.10;;;;;;;-0.01;100.00;97877.44;10414041;28;20584;-63
2022/01/25 16:29:18;;;;;;;37.03;17.17;;;;;;;0.09;100.00;97883.03;10413711;28;20192;-63
2022/01/25 16:34:19;;;;;;;44.50;18.90;;;;;;;0.06;100.00;97878.84;10413218;28;20238;-63
2022/01/25 16:39:19;;;;;;;45.67;17.77;;;;;;;0.07;100.00;97879.69;10411114;28;20314;-64
2022/01/25 16:44:20;;;;;;;40.70;15.93;;;;;;;0.12;100.00;97881.19;10409636;28;20212;-61
2022/01/25 16:49:20;;;;;;;46.53;16.57;;;;;;;0.02;100.00;97892.75;10411196;28;20172;-63
2022/01/25 16:54:21;;;;;;;44.27;17.20;;;;;;;-0.02;100.00;97891.19;10410109;28;20211;-63
2022/01/25 16:59:21;;;;;;;49.50;16.77;;;;;;;0.01;100.00;97885.09;10410309;28;20365;-64
2022/01/25 17:04:21;;;;;;;47.87;18.40;;;;;;;-0.06;100.00;97887.06;10410945;28;20319;-64
2022/01/25 17:09:22;;;;;;;44.37;16.60;;;;;;;-0.07;100.00;97886.22;10410556;28;20193;-64
2022/01/25 17:14:22;;;;;;;43.67;15.70;;;;;;;-0.11;100.00;97888.97;10412641;28;20250;-63
2022/01/25 17:19:23;;;;;;;40.50;15.40;;;;;;;-0.11;100.00;97886.41;10413212;28;20212;-64
2022/01/25 17:24:24;;;;;;;44.77;15.93;;;;;;;-0.06;100.00;97884.47;10413505;28;20208;-65
2022/01/25 17:29:24;;;;;;;34.63;13.10;;;;;;;-0.08;100.00;97888.88;10413774;28;20338;-63
2022/01/25 17:34:25;;;;;;;41.97;17.23;;;;;;;-0.12;100.00;97897.59;10411973;28;20235;-64
2022/01/25 17:39:26;;;;;;;37.63;15.33;;;;;;;-0.10;100.00;97900.97;10411478;28;20258;-64
2022/01/25 17:44:26;;;;;;;36.73;13.10;;;;;;;-0.17;100.00;97907.25;10441713;22;20248;-65
2022/01/25 17:49:28;;;;;;;27.00;11.27;;;;;;;-0.20;100.00;97905.63;10370090;28;20197;-66
2022/01/25 17:54:28;;;;;;;29.80;11.53;;;;;;;-0.20;100.00;97909.06;10371421;28;20286;-65
2022/01/25 17:59:29;;;;;;;29.73;12.57;;;;;;;-0.16;100.00;97908.94;10370871;28;20275;-63
2022/01/25 18:04:30;;;;;;;36.20;13.93;;;;;;;-0.27;100.00;97910.19;10370872;28;20213;-63
2022/01/25 18:09:30;;;;;;;42.60;13.60;;;;;;;-0.17;100.00;97909.84;10370540;28;20192;-63
2022/01/25 18:14:30;;;;;;;37.53;15.57;;;;;;;-0.16;100.00;97914.09;10370513;28;20302;-63
2022/01/25 18:19:31;;;;;;;31.43;12.63;;;;;;;-0.22;100.00;97917.75;10370889;28;20220;-63
2022/01/25 18:24:46;;;;;;;36.73;12.07;;;;;;;-0.21;100.00;97914.28;10369921;28;20216;-66
2022/01/25 18:29:46;;;;;;;34.23;13.33;;;;;;;-0.25;100.00;97916.09;10370251;28;20196;-63
2022/01/25 18:34:48;;;;;;;31.20;13.50;;;;;;;-0.23;100.00;97909.19;10369895;28;20227;-65
2022/01/25 18:39:48;;;;;;;32.63;13.60;;;;;;;-0.32;100.00;97914.69;10370099;28;20228;-63
2022/01/25 18:44:49;;;;;;;40.37;14.07;;;;;;;-0.25;100.00;97905.81;10369470;28;20259;-65
2022/01/25 18:49:49;;;;;;;39.90;16.10;;;;;;;-0.25;100.00;97902.41;10374030;28;20993;-66
2022/01/25 18:54:51;;;;;;;44.43;14.90;;;;;;;-0.34;100.00;97906.16;10377993;28;20572;-65
2022/01/25 18:59:52;;;;;;;47.30;20.10;;;;;;;-0.40;100.00;97903.81;10377654;28;20237;-64
2022/01/25 19:04:53;;;;;;;42.40;15.43;;;;;;;-0.38;100.00;97907.22;10377616;28;20224;-65
2022/01/25 19:09:53;;;;;;;38.33;14.17;;;;;;;-0.60;100.00;97909.75;10376978;28;20849;-64
2022/01/25 19:14:54;;;;;;;33.20;12.00;;;;;;;-0.42;100.00;97896.16;10377318;28;20259;-64
2022/01/25 19:19:54;;;;;;;29.60;11.03;;;;;;;-0.40;100.00;97896.97;10376055;28;20217;-65
2022/01/25 19:24:54;;;;;;;32.27;12.77;;;;;;;-0.44;100.00;97890.25;10376775;28;20209;-65
2022/01/25 19:29:56;;;;;;;32.13;13.03;;;;;;;-0.44;100.00;97887.69;10376676;28;20659;-64
2022/01/25 19:34:56;;;;;;;38.90;14.10;;;;;;;-0.61;100.00;97874.63;10376344;28;20209;-64
2022/01/25 19:39:57;;;;;;;31.83;12.83;;;;;;;-0.48;100.00;97883.53;10375205;28;20217;-64
2022/01/25 19:44:59;;;;;;;21.13;10.40;;;;;;;-0.40;100.00;97890.97;10373847;28;20316;-63
2022/01/25 19:49:59;;;;;;;25.80;11.50;;;;;;;-0.25;100.00;97892.09;10374109;28;20879;-63
2022/01/25 19:54:59;;;;;;;34.07;13.37;;;;;;;-0.22;100.00;97897.13;10375660;28;20224;-64
2022/01/25 20:00:00;;;;;;;29.87;11.83;;;;;;;-0.29;100.00;97890.53;10374097;28;20245;-64
2022/01/25 20:05:00;;;;;;;32.03;11.93;;;;;;;-0.38;100.00;97897.75;10375202;28;20214;-64
2022/01/25 20:10:05;;;;;;;36.50;13.00;;;;;;;-0.27;100.00;97891.34;10374888;28;20225;-64
2022/01/25 20:15:07;;;;;;;33.00;12.63;;;;;;;-0.22;100.00;97892.00;10374667;28;20803;-64
2022/01/25 20:20:18;;;;;;;31.63;12.67;;;;;;;-0.39;100.00;97890.06;10374697;28;20305;-64
2022/01/25 20:25:30;;;;;;;29.53;11.43;;;;;;;-0.41;100.00;97884.97;10374327;28;20234;-63
2022/01/25 20:30:37;;;;;;;26.87;10.67;;;;;;;-0.29;100.00;97872.53;10374497;28;20186;-64
2022/01/25 20:35:38;;;;;;;24.90;10.20;;;;;;;-0.29;100.00;97881.09;10374129;28;20224;-64
2022/01/25 20:40:38;;;;;;;27.60;10.70;;;;;;;-0.23;100.00;97865.41;10373949;28;20218;-64
2022/01/25 20:45:39;;;;;;;29.43;10.63;;;;;;;-0.19;100.00;97876.41;10373495;28;20244;-64
2022/01/25 20:50:40;;;;;;;24.20;10.67;;;;;;;-0.26;100.00;97872.41;10373602;28;20711;-64
2022/01/25 20:55:41;;;;;;;23.57;10.57;;;;;;;-0.13;100.00;97871.03;10373351;28;20209;-63
2022/01/25 21:00:47;;;;;;;32.47;11.07;;;;;;;-0.17;100.00;97884.91;10372829;28;20590;-64
2022/01/25 21:11:08;;;;;;;21.57;9.43;;;;;;;-0.15;100.00;97892.56;10371673;28;20597;-64
2022/01/25 21:16:09;;;;;;;24.27;10.27;;;;;;;-0.05;100.00;97871.53;10371423;28;20220;-65
2022/01/25 21:21:10;;;;;;;26.03;10.50;;;;;;;-0.23;100.00;97872.28;10372044;28;20239;-64
2022/01/25 21:26:11;;;;;;;26.33;11.63;;;;;;;-0.25;100.00;97859.47;10372009;28;20209;-64
2022/01/25 21:31:14;;;;;;;27.70;11.83;;;;;;;-0.27;100.00;97863.00;10372559;28;20185;-62
2022/01/25 21:36:15;;;;;;;30.57;11.50;;;;;;;-0.18;100.00;97862.66;10370279;28;20579;-62
2022/01/25 21:41:16;;;;;;;31.87;12.37;;;;;;;0.06;100.00;97854.81;10372167;28;20229;-64
2022/01/25 21:46:16;;;;;;;24.23;11.77;;;;;;;-0.24;100.00;97850.03;10371827;28;20243;-62
2022/01/25 21:51:17;;;;;;;31.63;12.07;;;;;;;-0.01;100.00;97849.91;10371966;28;20555;-64
2022/01/25 21:56:17;;;;;;;30.83;12.90;;;;;;;-0.44;100.00;97848.25;10372029;28;20440;-62
2022/01/25 22:01:18;;;;;;;35.30;15.33;;;;;;;-0.54;100.00;97845.16;10371446;28;20213;-64
2022/01/25 22:06:26;;;;;;;43.33;15.97;;;;;;;-0.48;100.00;97846.66;10371369;28;20224;-64
2022/01/25 22:11:27;;;;;;;40.63;16.80;;;;;;;-0.39;100.00;97854.84;10370726;28;20201;-64
2022/01/25 22:16:28;;;;;;;44.90;18.00;;;;;;;-0.35;100.00;97837.56;10371202;28;20756;-64
2022/01/25 22:21:28;;;;;;;45.57;18.70;;;;;;;-0.40;100.00;97836.91;10371060;28;20687;-64
2022/01/25 22:26:28;;;;;;;37.80;16.50;;;;;;;-0.13;100.00;97837.53;10370238;28;20217;-64
2022/01/25 22:31:29;;;;;;;40.07;17.57;;;;;;;-0.26;100.00;97831.19;10370931;28;20269;-64
2022/01/25 22:36:29;;;;;;;39.23;16.67;;;;;;;-0.34;100.00;97826.34;10370188;28;20212;-64
2022/01/25 22:41:29;;;;;;;42.83;17.97;;;;;;;-0.32;100.00;97829.72;10370622;28;20220;-64
2022/01/25 22:47:14;;;;;;;44.37;19.33;;;;;;;-0.42;100.00;97826.66;10369996;28;20320;-64
2022/01/25 22:51:54;;;;;;;41.20;16.80;;;;;;;-0.55;100.00;97831.47;10364756;28;20206;-64
2022/01/25 22:56:54;;;;;;;38.57;17.20;;;;;;;-0.55;100.00;97822.91;10369885;28;20232;-64
2022/01/25 23:07:15;;;;;;;40.63;17.20;;;;;;;-0.38;100.00;97809.38;10369885;28;20209;-63
2022/01/25 23:12:35;;;;;;;39.23;17.13;;;;;;;-0.44;100.00;97807.88;10369529;28;20213;-64
2022/01/25 23:17:38;;;;;;;38.13;15.93;;;;;;;-0.42;100.00;97808.63;10369654;28;20240;-64
2022/01/25 23:22:43;;;;;;;37.57;17.40;;;;;;;-0.52;100.00;97803.91;10369487;28;20198;-64
2022/01/25 23:27:45;;;;;;;39.87;16.63;;;;;;;-0.49;100.00;97798.66;10369588;28;20246;-64
2022/01/25 23:38:22;;;;;;;50.50;19.13;;;;;;;-0.71;100.00;97802.06;10376671;28;20221;-63
2022/01/25 23:43:31;;;;;;;39.57;17.33;;;;;;;-0.46;100.00;97803.69;10376871;28;20914;-64
2022/01/25 23:48:32;;;;;;;38.83;18.37;;;;;;;-0.41;100.00;97799.19;10421510;22;20252;-63
